createdAt,value
2019-05-07T00:01:07.912Z,102102.42
2019-05-07T00:06:09.670Z,102106.32
2019-05-07T00:11:12.617Z,102099.42
2019-05-07T00:16:14.394Z,102104.09
2019-05-07T00:21:16.236Z,102104.56
2019-05-07T00:26:17.671Z,102101.25
2019-05-07T00:31:19.227Z,102100.27
2019-05-07T00:36:23.081Z,102104.68
2019-05-07T00:41:24.927Z,102099.21
2019-05-07T00:46:26.352Z,102090.83
2019-05-07T00:51:28.240Z,102079.94
2019-05-07T00:56:30.038Z,102094.69
2019-05-07T01:01:32.357Z,102100.98
2019-05-07T01:06:33.950Z,102096.83
2019-05-07T01:11:35.715Z,102108.78
2019-05-07T01:16:37.091Z,102103.00
2019-05-07T01:21:38.643Z,102099.92
2019-05-07T01:26:42.403Z,102093.16
2019-05-07T01:31:43.580Z,102097.13
2019-05-07T01:36:45.110Z,102093.81
2019-05-07T01:41:46.635Z,102094.41
2019-05-07T01:46:48.168Z,102093.44
2019-05-07T01:51:49.673Z,102088.22
2019-05-07T01:56:52.193Z,102090.06
2019-05-07T02:01:53.836Z,102094.50
2019-05-07T02:06:55.386Z,102093.73
2019-05-07T02:11:57.247Z,102093.73
2019-05-07T02:16:58.809Z,102095.28
2019-05-07T02:22:02.583Z,102095.03
2019-05-07T02:27:03.750Z,102093.87
2019-05-07T02:32:05.617Z,102093.06
2019-05-07T02:37:07.023Z,102092.38
2019-05-07T02:42:08.549Z,102085.23
2019-05-07T02:47:12.729Z,102086.16
2019-05-07T02:52:13.893Z,102086.97
2019-05-07T02:57:16.954Z,102079.63
2019-05-07T03:02:19.017Z,102076.25
2019-05-07T03:07:23.900Z,102069.78
2019-05-07T03:12:24.756Z,102065.88
2019-05-07T03:17:26.185Z,102069.06
2019-05-07T03:22:27.659Z,102059.56
2019-05-07T03:27:29.413Z,102055.94
2019-05-07T03:32:36.531Z,102059.46
2019-05-07T03:37:36.315Z,102055.16
2019-05-07T03:42:38.136Z,102049.03
2019-05-07T03:47:39.646Z,102050.63
2019-05-07T03:52:42.841Z,102038.42
2019-05-07T03:57:44.980Z,102044.80
2019-05-07T04:02:46.390Z,102043.49
2019-05-07T04:07:48.192Z,102043.54
2019-05-07T04:12:49.776Z,102046.77
2019-05-07T04:17:53.703Z,102040.34
2019-05-07T04:22:55.576Z,102039.03
2019-05-07T04:27:57.078Z,102030.47
2019-05-07T04:32:58.597Z,102025.34
2019-05-07T04:38:03.422Z,102023.31
2019-05-07T04:43:03.807Z,102015.05
2019-05-07T04:48:05.291Z,102017.28
2019-05-07T04:53:06.837Z,102015.89
2019-05-07T04:58:09.213Z,102003.84
2019-05-07T05:03:12.937Z,102009.56
2019-05-07T05:08:14.536Z,102005.11
2019-05-07T05:13:16.157Z,102009.58
2019-05-07T05:18:18.212Z,102008.69
2019-05-07T05:23:19.916Z,102002.56
2019-05-07T05:28:21.983Z,102007.33
2019-05-07T05:33:24.284Z,102005.12
2019-05-07T05:38:26.127Z,102005.92
2019-05-07T05:43:27.662Z,101998.67
2019-05-07T05:48:29.164Z,102000.88
2019-05-07T05:53:32.716Z,102001.75
2019-05-07T05:58:34.236Z,102002.52
2019-05-07T06:03:35.728Z,101999.17
2019-05-07T06:08:37.251Z,102005.80
2019-05-07T06:13:39.214Z,101997.20
2019-05-07T06:18:41.975Z,102001.86
2019-05-07T06:23:43.573Z,102003.58
2019-05-07T06:28:45.178Z,101996.98
2019-05-07T06:33:47.376Z,101990.22
2019-05-07T06:38:49.757Z,101996.91
2019-05-07T06:43:52.158Z,101998.27
2019-05-07T06:48:54.270Z,101996.00
2019-05-07T06:53:56.904Z,101996.00
2019-05-07T06:58:58.691Z,101994.93
2019-05-07T07:04:02.628Z,101994.16
2019-05-07T07:09:07.948Z,101988.75
2019-05-07T07:14:09.342Z,101987.32
2019-05-07T07:19:12.422Z,101975.04
2019-05-07T07:24:14.127Z,101977.62
2019-05-07T07:29:15.632Z,101983.37
2019-05-07T07:34:17.481Z,101976.73
2019-05-07T07:39:19.303Z,101977.21
2019-05-07T07:44:22.339Z,101976.05
2019-05-07T07:49:24.248Z,101966.64
2019-05-07T07:54:26.307Z,101968.95
2019-05-07T07:59:27.878Z,101970.17
2019-05-07T08:04:33.374Z,101965.41
2019-05-07T08:09:34.912Z,101963.01
2019-05-07T08:14:36.447Z,101966.79
2019-05-07T08:19:38.337Z,101955.81
2019-05-07T08:24:42.395Z,101954.73
2019-05-07T08:29:43.789Z,101956.35
2019-05-07T08:34:45.311Z,101950.61
2019-05-07T08:39:46.806Z,101947.36
2019-05-07T08:44:48.349Z,101944.16
2019-05-07T08:49:52.314Z,101940.64
2019-05-07T08:54:53.935Z,101936.55
2019-05-07T09:00:00.247Z,101924.13
2019-05-07T09:04:59.131Z,101915.49
2019-05-07T09:10:02.465Z,101910.66
2019-05-07T09:15:04.386Z,101908.54
2019-05-07T09:20:09.121Z,101896.95
2019-05-07T09:25:09.872Z,101899.92
2019-05-07T09:30:12.787Z,101892.14
2019-05-07T09:35:14.679Z,101884.73
2019-05-07T09:40:16.196Z,101885.33
2019-05-07T09:45:17.698Z,101875.48
2019-05-07T09:50:19.350Z,101873.59
2019-05-07T09:55:23.135Z,101868.80
2019-05-07T10:00:24.333Z,101862.72
2019-05-07T10:05:26.625Z,101850.87
2019-05-07T10:10:28.206Z,101852.97
2019-05-07T10:15:30.044Z,101849.38
2019-05-07T10:20:32.740Z,101841.94
2019-05-07T10:25:34.811Z,101832.86
2019-05-07T10:30:37.939Z,101836.75
2019-05-07T10:35:41.009Z,101835.66
2019-05-07T10:40:43.751Z,101834.59
2019-05-07T10:45:45.364Z,101826.18
2019-05-07T10:50:46.900Z,101819.46
2019-05-07T10:55:48.397Z,101821.77
2019-05-07T11:00:51.972Z,101811.17
2019-05-07T11:05:53.448Z,101811.92
2019-05-07T11:10:54.950Z,101802.55
2019-05-07T11:15:56.884Z,101803.78
2019-05-07T11:20:58.553Z,101804.95
2019-05-07T11:26:00.025Z,101800.80
2019-05-07T11:31:02.292Z,101798.58
2019-05-07T11:36:04.246Z,101796.64
2019-05-07T11:41:05.916Z,101795.30
2019-05-07T11:46:07.710Z,101796.34
2019-05-07T11:51:09.688Z,101794.11
2019-05-07T11:56:11.795Z,101801.69
2019-05-07T12:01:13.784Z,101805.53
2019-05-07T12:06:15.268Z,101779.50
2019-05-07T12:11:17.155Z,101766.22
2019-05-07T12:16:18.680Z,101770.62
2019-05-07T12:21:23.627Z,101758.28
2019-05-07T12:26:24.401Z,101748.59
2019-05-07T12:31:26.108Z,101742.25
2019-05-07T12:36:27.657Z,101739.02
2019-05-07T12:41:29.506Z,101733.76
2019-05-07T12:46:33.369Z,101731.50
2019-05-07T12:51:37.636Z,101727.76
2019-05-07T12:56:39.059Z,101723.19
2019-05-07T13:01:42.196Z,101719.88
2019-05-07T13:06:44.277Z,101720.47
2019-05-07T13:11:45.791Z,101712.31
2019-05-07T13:16:47.731Z,101719.59
2019-05-07T13:21:50.073Z,101708.09
2019-05-07T13:26:52.189Z,101709.75
2019-05-07T13:31:54.471Z,101699.08
2019-05-07T13:36:56.338Z,101698.11
2019-05-07T13:41:57.881Z,101691.16
2019-05-07T13:47:02.132Z,101684.39
2019-05-07T13:52:03.939Z,101682.36
2019-05-07T13:57:05.489Z,101674.19
2019-05-07T14:02:07.841Z,101661.86
2019-05-07T14:07:09.499Z,101664.13
2019-05-07T14:12:12.331Z,101659.34
2019-05-07T14:17:14.185Z,101666.59
2019-05-07T14:22:19.150Z,101655.41
2019-05-07T14:27:21.049Z,101655.05
2019-05-07T14:32:23.191Z,101644.63
2019-05-07T14:37:24.765Z,101641.16
2019-05-07T14:42:27.227Z,101631.86
2019-05-07T14:47:28.889Z,101629.87
2019-05-07T14:52:33.798Z,101615.03
2019-05-07T14:57:34.110Z,101614.55
2019-05-07T15:02:36.753Z,101604.28
2019-05-07T15:07:38.568Z,101595.47
2019-05-07T15:12:40.138Z,101585.00
2019-05-07T15:17:42.075Z,101583.81
2019-05-07T15:22:49.592Z,101573.80
2019-05-07T15:27:47.568Z,101570.55
2019-05-07T15:32:49.415Z,101565.48
2019-05-07T15:37:51.803Z,101561.11
2019-05-07T15:42:53.433Z,101558.09
2019-05-07T15:47:54.747Z,101548.95
2019-05-07T15:52:58.711Z,101554.33
2019-05-07T15:58:02.659Z,101541.91
2019-05-07T16:03:04.701Z,101539.83
2019-05-07T16:08:08.579Z,101530.66
2019-05-07T16:13:13.731Z,101528.13
2019-05-07T16:18:15.468Z,101527.16
2019-05-07T16:23:18.131Z,101509.97
2019-05-07T16:28:21.795Z,101508.41
2019-05-07T16:33:23.841Z,101503.88
2019-05-07T16:38:26.076Z,101500.61
2019-05-07T16:43:27.622Z,101499.69
2019-05-07T16:48:29.219Z,101489.88
2019-05-07T16:53:33.070Z,101490.23
2019-05-07T16:58:35.059Z,101484.39
2019-05-07T17:03:36.792Z,101471.73
2019-05-07T17:08:38.694Z,101471.22
2019-05-07T17:13:42.277Z,101467.34
2019-05-07T17:18:44.526Z,101470.65
2019-05-07T17:23:46.748Z,101467.84
2019-05-07T17:28:48.542Z,101464.44
2019-05-07T17:33:51.652Z,101461.02
2019-05-07T17:38:53.552Z,101454.25
2019-05-07T17:43:54.907Z,101456.48
2019-05-07T17:48:56.419Z,101443.16
2019-05-07T17:54:00.272Z,101440.89
2019-05-07T17:59:02.901Z,101435.45
2019-05-07T18:04:04.662Z,101430.80
2019-05-07T18:09:06.840Z,101432.45
2019-05-07T18:14:08.717Z,101428.48
2019-05-07T18:19:10.246Z,101418.39
2019-05-07T18:24:16.410Z,101419.04
2019-05-07T18:29:15.705Z,101413.91
2019-05-07T18:34:17.906Z,101407.88
2019-05-07T18:39:20.525Z,101409.98
2019-05-07T18:44:22.563Z,101408.02
2019-05-07T18:49:24.240Z,101411.50
2019-05-07T18:54:30.897Z,101409.00
2019-05-07T18:59:29.361Z,101398.63
2019-05-07T19:04:32.797Z,101398.13
2019-05-07T19:09:35.825Z,101411.44
2019-05-07T19:14:37.354Z,101408.66
2019-05-07T19:19:39.224Z,101399.80
2019-05-07T19:24:47.115Z,101404.12
2019-05-07T19:29:45.845Z,101404.02
2019-05-07T19:34:47.729Z,101404.70
2019-05-07T19:39:49.206Z,101404.47
2019-05-07T19:44:51.872Z,101407.30
2019-05-07T19:49:53.916Z,101403.25
2019-05-07T19:55:00.691Z,101411.84
2019-05-07T19:59:59.083Z,101396.97
2019-05-07T20:05:03.311Z,101378.01
2019-05-07T20:10:04.116Z,101368.55
2019-05-07T20:15:05.984Z,101364.59
2019-05-07T20:20:07.481Z,101357.42
2019-05-07T20:25:18.115Z,101354.67
2019-05-07T20:30:13.051Z,101349.40
2019-05-07T20:35:15.339Z,101343.17
2019-05-07T20:40:16.873Z,101346.01
2019-05-07T20:45:18.494Z,101343.21
2019-05-07T20:50:22.242Z,101339.69
2019-05-07T20:55:30.489Z,101336.20
2019-05-07T21:00:27.254Z,101334.62
2019-05-07T21:05:29.026Z,101332.08
2019-05-07T21:10:32.827Z,101325.82
2019-05-07T21:15:35.129Z,101311.63
2019-05-07T21:20:36.598Z,101304.62
2019-05-07T21:25:45.548Z,101289.08
2019-05-07T21:30:42.804Z,101277.89
2019-05-07T21:35:44.427Z,101285.87
2019-05-07T21:40:46.302Z,101276.12
2019-05-07T21:45:48.357Z,101265.77
2019-05-07T21:50:51.965Z,101265.69
2019-05-07T21:56:01.830Z,101254.58
2019-05-07T22:00:58.461Z,101252.64
2019-05-07T22:06:02.471Z,101243.62
2019-05-07T22:11:04.690Z,101229.13
2019-05-07T22:16:07.225Z,101227.45
2019-05-07T22:21:08.712Z,101233.06
2019-05-07T22:26:20.127Z,101221.96
2019-05-07T22:31:13.909Z,101209.38
2019-05-07T22:36:15.428Z,101190.31
2019-05-07T22:41:17.181Z,101187.01
2019-05-07T22:46:18.608Z,101179.00
2019-05-07T22:51:20.082Z,101176.86
2019-05-07T22:56:34.253Z,101168.09
2019-05-07T23:01:25.080Z,101158.85
2019-05-07T23:06:27.034Z,101149.17
2019-05-07T23:11:28.441Z,101145.28
2019-05-07T23:16:32.407Z,101141.98
2019-05-07T23:21:33.628Z,101131.89
2019-05-07T23:26:47.289Z,101132.44
2019-05-07T23:31:38.812Z,101122.89
2019-05-07T23:36:42.100Z,101119.45
2019-05-07T23:41:43.659Z,101112.39
2019-05-07T23:46:45.234Z,101117.95
2019-05-07T23:51:46.782Z,101115.66
2019-05-07T23:57:04.473Z,101115.66
